Time;durP1;ratioP1;P1;durP2;ratioP2;P2;SDS_P1;SDS_P2;PMS_P1;PMS_P2;Temp;Humidity;BMP_temperature;BMP_pressure;BME280_temperature;BME280_humidity;BME280_pressure;Samples;Min_cycle;Max_cycle;Signal;HPM_P1;HPM_P2
2023/07/25 00:01:24;;;;;;;5.57;1.63;;;14.60;93.90;;;;;;5022423;28;20043;-83
2023/07/25 00:03:50;;;;;;;6.53;1.85;;;14.60;94.00;;;;;;5039004;28;20037;-83
2023/07/25 00:06:16;;;;;;;6.43;2.00;;;14.60;94.00;;;;;;5022580;28;20492;-83
2023/07/25 00:08:42;;;;;;;8.27;2.10;;;14.50;94.00;;;;;;5055378;28;20102;-83
2023/07/25 00:11:13;;;;;;;5.72;1.65;;;14.60;94.10;;;;;;5022314;28;20037;-83
2023/07/25 00:13:39;;;;;;;6.15;1.90;;;14.50;94.10;;;;;;5051246;28;20026;-83
2023/07/25 00:16:04;;;;;;;6.50;1.83;;;14.50;94.10;;;;;;5039088;28;20385;-83
2023/07/25 00:18:30;;;;;;;8.40;2.63;;;14.40;94.10;;;;;;5055129;28;20025;-83
2023/07/25 00:20:56;;;;;;;6.05;2.00;;;14.50;94.20;;;;;;5056595;28;20037;-83
2023/07/25 00:23:21;;;;;;;5.70;1.73;;;14.40;94.20;;;;;;5038394;28;20080;-82
2023/07/25 00:25:47;;;;;;;6.53;2.20;;;14.40;94.20;;;;;;5056546;28;20053;-83
2023/07/25 00:28:12;;;;;;;6.68;2.03;;;14.30;94.30;;;;;;5055212;28;20476;-83
2023/07/25 00:30:39;;;;;;;5.25;1.98;;;14.30;94.30;;;;;;5038393;28;20029;-82
2023/07/25 00:33:05;;;;;;;4.95;1.80;;;14.20;94.30;;;;;;5038653;28;20025;-82
2023/07/25 00:35:31;;;;;;;4.60;1.83;;;14.20;94.40;;;;;;5055100;28;20025;-82
2023/07/25 00:37:57;;;;;;;8.20;1.85;;;14.20;94.50;;;;;;5055307;28;20489;-83
2023/07/25 00:40:22;;;;;;;5.35;1.80;;;14.20;94.60;;;;;;5057664;28;20033;-83
2023/07/25 00:42:54;;;;;;;6.90;2.40;;;14.20;94.70;;;;;;5056887;28;20103;-83
2023/07/25 00:45:19;;;;;;;7.88;2.35;;;14.10;94.80;;;;;;5055841;28;20182;-83
2023/07/25 00:47:45;;;;;;;4.70;1.83;;;14.10;94.80;;;;;;5056074;28;20598;-83
2023/07/25 00:50:11;;;;;;;7.47;2.38;;;14.10;94.90;;;;;;5039689;28;20041;-83
2023/07/25 00:52:37;;;;;;;7.03;2.72;;;14.10;94.90;;;;;;5056372;28;20029;-83
2023/07/25 00:55:03;;;;;;;8.02;2.35;;;14.00;94.90;;;;;;5054497;28;20021;-83
2023/07/25 00:57:30;;;;;;;9.02;1.85;;;14.00;95.00;;;;;;5054597;28;20541;-83
2023/07/25 00:59:56;;;;;;;9.60;2.35;;;14.00;95.00;;;;;;5054581;28;20067;-82
2023/07/25 01:02:22;;;;;;;7.78;2.75;;;14.00;95.10;;;;;;5053866;28;20122;-83
2023/07/25 01:04:48;;;;;;;6.80;2.85;;;14.00;95.10;;;;;;5038305;28;20043;-82
2023/07/25 01:07:15;;;;;;;9.75;2.95;;;14.00;95.10;;;;;;5021261;28;20538;-82
2023/07/25 01:09:44;;;;;;;6.57;2.78;;;13.90;95.20;;;;;;5054465;28;20045;-84
2023/07/25 01:12:11;;;;;;;7.15;2.47;;;13.90;95.30;;;;;;5055509;28;20029;-83
2023/07/25 01:14:38;;;;;;;8.00;3.00;;;13.90;95.30;;;;;;5054098;28;20477;-82
2023/07/25 01:17:17;;;;;;;9.10;2.80;;;13.90;95.40;;;;;;5054052;28;20540;-82
2023/07/25 01:19:46;;;;;;;6.50;2.80;;;13.80;95.40;;;;;;5054099;28;20087;-84
2023/07/25 01:22:12;;;;;;;7.57;2.33;;;13.80;95.50;;;;;;5053630;28;20048;-74
2023/07/25 01:24:45;;;;;;;7.72;2.50;;;13.80;95.50;;;;;;5054074;28;20029;-74
2023/07/25 01:27:12;;;;;;;8.87;2.63;;;13.80;95.60;;;;;;5053676;28;20040;-75
2023/07/25 01:29:37;;;;;;;7.78;2.40;;;13.80;95.60;;;;;;5055294;28;20021;-75
2023/07/25 01:32:03;;;;;;;5.47;2.45;;;13.70;95.60;;;;;;5055191;28;20060;-74
2023/07/25 01:34:29;;;;;;;7.68;2.70;;;13.70;95.70;;;;;;5053891;28;20044;-75
2023/07/25 01:36:55;;;;;;;6.43;2.67;;;13.80;95.90;;;;;;5053696;28;20381;-74
2023/07/25 01:39:20;;;;;;;6.25;2.30;;;13.70;95.90;;;;;;5053457;28;20036;-75
2023/07/25 01:41:46;;;;;;;7.90;2.45;;;13.70;95.90;;;;;;5053316;28;20025;-76
2023/07/25 01:44:12;;;;;;;7.38;2.55;;;13.60;95.90;;;;;;5053311;28;20065;-75
2023/07/25 01:46:40;;;;;;;8.00;2.30;;;13.70;96.10;;;;;;5053419;28;20033;-75
2023/07/25 01:49:08;;;;;;;7.20;2.70;;;13.70;96.20;;;;;;5053683;28;20116;-75
2023/07/25 01:51:34;;;;;;;4.38;2.28;;;13.70;96.20;;;;;;5054444;28;20032;-75
2023/07/25 01:53:59;;;;;;;7.40;2.50;;;13.70;96.30;;;;;;5053019;28;20017;-75
2023/07/25 01:56:25;;;;;;;7.05;2.53;;;13.60;96.30;;;;;;5053573;28;20048;-74
2023/07/25 01:58:51;;;;;;;8.60;3.05;;;13.60;96.40;;;;;;5054409;28;20082;-75
2023/07/25 02:01:16;;;;;;;6.88;2.45;;;13.60;96.50;;;;;;5054552;28;20033;-75
2023/07/25 02:03:42;;;;;;;7.70;2.58;;;13.60;96.50;;;;;;5036637;28;20061;-75
2023/07/25 02:06:08;;;;;;;7.60;3.08;;;13.60;96.70;;;;;;5053355;28;20029;-75
2023/07/25 02:08:34;;;;;;;8.35;3.05;;;13.60;96.70;;;;;;5054318;28;20082;-75
2023/07/25 02:11:00;;;;;;;8.13;3.22;;;13.50;96.70;;;;;;5052808;28;20013;-76
2023/07/25 02:13:26;;;;;;;10.07;3.10;;;13.50;96.80;;;;;;5054246;28;20040;-76
2023/07/25 02:15:51;;;;;;;7.90;2.83;;;13.50;96.90;;;;;;5053110;28;20045;-75
2023/07/25 02:18:17;;;;;;;7.93;3.17;;;13.50;96.90;;;;;;5052673;28;20386;-75
2023/07/25 02:20:43;;;;;;;5.90;3.10;;;13.50;97.00;;;;;;5036549;28;20021;-75
2023/07/25 02:23:08;;;;;;;7.55;3.33;;;13.50;97.00;;;;;;5054052;28;20067;-74
2023/07/25 02:25:34;;;;;;;10.55;3.47;;;13.50;97.10;;;;;;5035997;28;20029;-74
2023/07/25 02:28:00;;;;;;;8.13;3.15;;;13.50;97.10;;;;;;5054235;28;20095;-75
2023/07/25 02:30:25;;;;;;;7.28;2.83;;;13.50;97.10;;;;;;5036418;28;20056;-74
2023/07/25 02:32:51;;;;;;;9.27;3.35;;;13.50;97.10;;;;;;5053630;28;20075;-75
2023/07/25 02:35:17;;;;;;;9.80;3.30;;;13.50;97.20;;;;;;5053696;28;20025;-75
2023/07/25 02:37:43;;;;;;;6.32;2.92;;;13.40;97.20;;;;;;5035961;28;20112;-74
2023/07/25 02:40:08;;;;;;;9.50;2.88;;;13.40;97.20;;;;;;5054031;28;20025;-74
2023/07/25 02:42:35;;;;;;;5.53;2.50;;;13.40;97.30;;;;;;5053482;28;20481;-75
2023/07/25 02:45:00;;;;;;;6.95;3.20;;;13.40;97.40;;;;;;5052323;28;20029;-76
2023/07/25 02:47:26;;;;;;;7.57;2.75;;;13.40;97.40;;;;;;5053493;28;20029;-75
2023/07/25 02:49:52;;;;;;;9.90;2.58;;;13.40;97.50;;;;;;5035700;28;20082;-75
2023/07/25 02:52:18;;;;;;;11.98;3.60;;;13.40;97.50;;;;;;5053866;28;20017;-76
2023/07/25 02:54:44;;;;;;;4.32;2.47;;;13.40;97.60;;;;;;5053620;28;20046;-76
2023/07/25 02:57:09;;;;;;;14.65;2.72;;;13.40;97.60;;;;;;5052104;28;20402;-76
2023/07/25 02:59:35;;;;;;;8.27;2.65;;;13.40;97.70;;;;;;5053476;28;20070;-75
2023/07/25 03:02:01;;;;;;;10.73;2.95;;;13.40;97.70;;;;;;5053351;28;20052;-76
2023/07/25 03:04:26;;;;;;;11.02;2.92;;;13.40;97.70;;;;;;5052368;28;20393;-76
2023/07/25 03:06:52;;;;;;;8.50;3.17;;;13.40;97.70;;;;;;5053510;28;20076;-75
2023/07/25 03:09:18;;;;;;;9.23;2.88;;;13.40;97.70;;;;;;5035274;28;20054;-76
2023/07/25 03:11:44;;;;;;;7.68;3.00;;;13.40;97.80;;;;;;5052183;28;20108;-75
2023/07/25 03:14:09;;;;;;;7.75;2.38;;;13.40;97.80;;;;;;5052520;28;20029;-75
2023/07/25 03:16:35;;;;;;;6.18;2.47;;;13.50;97.90;;;;;;5052464;28;20160;-75
2023/07/25 03:19:00;;;;;;;6.43;2.42;;;13.40;98.00;;;;;;5053448;28;20493;-75
2023/07/25 03:21:26;;;;;;;7.70;2.83;;;13.40;98.00;;;;;;5052190;28;20029;-75
2023/07/25 03:23:52;;;;;;;8.63;2.88;;;13.40;98.10;;;;;;5053165;28;20521;-75
2023/07/25 03:26:19;;;;;;;8.05;3.28;;;13.30;98.10;;;;;;5055590;28;20125;-76
2023/07/25 03:28:44;;;;;;;9.80;3.95;;;13.30;98.10;;;;;;5056008;28;20033;-75
2023/07/25 03:31:10;;;;;;;6.65;3.15;;;13.30;98.20;;;;;;5039477;28;20037;-75
2023/07/25 03:33:35;;;;;;;8.93;3.60;;;13.30;98.20;;;;;;5056043;28;20037;-75
2023/07/25 03:36:01;;;;;;;9.50;4.70;;;13.20;98.20;;;;;;5057087;28;20037;-75
2023/07/25 03:38:27;;;;;;;5.70;3.38;;;13.20;98.20;;;;;;5057333;28;20409;-75
2023/07/25 03:40:52;;;;;;;7.03;3.25;;;13.20;98.30;;;;;;5057368;28;20120;-75
2023/07/25 03:43:20;;;;;;;9.77;3.67;;;13.20;98.40;;;;;;5055833;28;20036;-75
2023/07/25 03:45:45;;;;;;;7.63;3.05;;;13.20;98.40;;;;;;5056806;28;20036;-75
2023/07/25 03:48:11;;;;;;;7.45;3.05;;;13.10;98.40;;;;;;5038807;28;20103;-75
2023/07/25 03:50:36;;;;;;;8.80;3.65;;;13.10;98.50;;;;;;5055484;28;20037;-75
2023/07/25 03:53:04;;;;;;;7.15;3.78;;;13.10;98.50;;;;;;5055687;28;20437;-75
2023/07/25 03:55:30;;;;;;;9.65;4.20;;;13.10;98.60;;;;;;5055141;28;20461;-75
2023/07/25 03:57:56;;;;;;;12.60;3.47;;;13.10;98.70;;;;;;5055535;28;20021;-75
2023/07/25 04:00:22;;;;;;;7.35;3.05;;;13.20;98.80;;;;;;5038753;28;20090;-75
2023/07/25 04:02:47;;;;;;;7.78;3.53;;;13.20;98.80;;;;;;5055799;28;20036;-75
2023/07/25 04:05:14;;;;;;;7.90;3.90;;;13.10;98.80;;;;;;5057114;28;20037;-75
2023/07/25 04:07:39;;;;;;;7.38;3.20;;;13.10;98.80;;;;;;5056977;28;20037;-75
2023/07/25 04:10:05;;;;;;;7.90;3.67;;;13.10;98.80;;;;;;5038686;28;20056;-75
2023/07/25 04:12:31;;;;;;;8.80;3.30;;;13.10;98.80;;;;;;5055312;28;20033;-75
2023/07/25 04:14:57;;;;;;;11.23;3.85;;;13.10;98.90;;;;;;5055542;28;20841;-76
2023/07/25 04:17:22;;;;;;;6.55;3.67;;;13.10;98.90;;;;;;5056426;28;20063;-75
2023/07/25 04:19:48;;;;;;;7.38;3.47;;;13.00;98.90;;;;;;5055185;28;20024;-75
2023/07/25 04:22:14;;;;;;;6.47;3.83;;;13.00;99.00;;;;;;5038265;28;20061;-76
2023/07/25 04:24:40;;;;;;;8.43;3.30;;;13.00;99.10;;;;;;5056567;28;20029;-76
2023/07/25 04:27:05;;;;;;;7.13;3.50;;;13.00;99.20;;;;;;5039051;28;20033;-75
2023/07/25 04:29:31;;;;;;;7.72;3.60;;;13.00;99.20;;;;;;5056292;28;20033;-75
2023/07/25 04:31:56;;;;;;;7.60;2.60;;;13.00;99.30;;;;;;5056011;28;20071;-75
2023/07/25 04:34:22;;;;;;;7.00;3.17;;;13.00;99.40;;;;;;5055009;28;20029;-76
2023/07/25 04:36:48;;;;;;;12.35;3.47;;;13.00;99.40;;;;;;5053466;28;20033;-75
2023/07/25 04:39:14;;;;;;;6.13;3.17;;;13.00;99.50;;;;;;5038225;28;20024;-75
2023/07/25 04:41:39;;;;;;;6.88;3.08;;;13.00;99.50;;;;;;5055811;28;20037;-75
2023/07/25 04:44:05;;;;;;;8.88;2.67;;;13.00;99.60;;;;;;5038261;28;20524;-75
2023/07/25 04:46:31;;;;;;;6.32;3.50;;;13.00;99.60;;;;;;5055917;28;20394;-75
2023/07/25 04:48:57;;;;;;;11.77;3.97;;;13.00;99.70;;;;;;5054748;28;20021;-75
2023/07/25 04:51:22;;;;;;;7.60;3.15;;;13.10;99.70;;;;;;5054333;28;20385;-75
2023/07/25 04:53:48;;;;;;;10.27;3.55;;;13.10;99.80;;;;;;5054509;28;20120;-75
2023/07/25 04:56:13;;;;;;;9.38;3.45;;;13.00;99.80;;;;;;5055704;28;20056;-75
2023/07/25 04:58:40;;;;;;;8.60;2.92;;;13.10;99.90;;;;;;5054300;28;20025;-75
2023/07/25 05:01:07;;;;;;;10.95;2.83;;;13.10;99.90;;;;;;5038156;28;20029;-75
2023/07/25 05:03:33;;;;;;;6.80;3.05;;;13.10;99.90;;;;;;5055424;28;20473;-75
2023/07/25 05:05:59;;;;;;;5.70;2.60;;;13.10;99.90;;;;;;5055445;28;20547;-75
2023/07/25 05:08:24;;;;;;;6.50;2.50;;;13.20;99.90;;;;;;5054302;28;20037;-75
2023/07/25 05:10:51;;;;;;;4.97;2.20;;;13.20;99.90;;;;;;5054726;28;20033;-75
2023/07/25 05:13:17;;;;;;;7.45;2.85;;;13.30;99.90;;;;;;5055146;28;20021;-74
2023/07/25 05:15:43;;;;;;;6.18;2.13;;;13.30;99.90;;;;;;5055550;28;20135;-75
2023/07/25 05:18:08;;;;;;;5.97;2.10;;;13.40;99.90;;;;;;5047592;28;20521;-74
2023/07/25 05:20:34;;;;;;;5.95;2.05;;;13.40;99.90;;;;;;5053011;28;20079;-75
2023/07/25 05:22:59;;;;;;;7.00;2.10;;;13.50;99.90;;;;;;5041020;28;20124;-75
2023/07/25 05:25:25;;;;;;;5.15;1.98;;;13.60;99.90;;;;;;5035316;28;20037;-74
2023/07/25 05:27:51;;;;;;;7.10;2.08;;;13.60;99.90;;;;;;5059732;28;20511;-75
2023/07/25 05:30:16;;;;;;;8.38;2.03;;;13.70;99.90;;;;;;5041609;28;20469;-75
2023/07/25 05:32:42;;;;;;;6.25;2.17;;;13.70;99.90;;;;;;5068936;28;20037;-76
2023/07/25 05:35:08;;;;;;;4.15;1.77;;;13.80;99.90;;;;;;5060929;28;20074;-75
2023/07/25 05:37:39;;;;;;;8.25;2.50;;;13.90;99.90;;;;;;5053187;28;20485;-75
2023/07/25 05:40:05;;;;;;;7.03;2.75;;;13.90;99.90;;;;;;5031614;28;20038;-75
2023/07/25 05:42:32;;;;;;;7.13;2.20;;;14.00;99.90;;;;;;5045124;28;20528;-75
2023/07/25 05:44:59;;;;;;;5.28;2.25;;;14.10;99.90;;;;;;5020202;28;20040;-75
2023/07/25 05:47:26;;;;;;;5.03;1.50;;;14.20;99.90;;;;;;5033250;28;20072;-76
2023/07/25 05:49:52;;;;;;;8.68;2.38;;;14.30;99.90;;;;;;5033189;28;20067;-75
2023/07/25 05:52:17;;;;;;;11.68;2.65;;;14.30;99.90;;;;;;5034637;28;20057;-75
2023/07/25 05:54:46;;;;;;;7.43;2.33;;;14.30;99.90;;;;;;5034203;28;20407;-76
2023/07/25 05:57:12;;;;;;;5.65;2.05;;;14.40;99.90;;;;;;5033199;28;20040;-76
2023/07/25 05:59:40;;;;;;;6.82;2.08;;;14.40;99.90;;;;;;5033356;28;20033;-76
2023/07/25 06:02:07;;;;;;;6.20;1.70;;;14.40;99.90;;;;;;5017116;28;20452;-76
2023/07/25 06:04:32;;;;;;;8.38;1.35;;;14.50;99.90;;;;;;5016903;28;20065;-76
2023/07/25 06:06:58;;;;;;;6.55;1.58;;;14.60;99.90;;;;;;5016888;28;20072;-76
2023/07/25 06:09:24;;;;;;;5.03;2.05;;;14.60;99.90;;;;;;5033202;28;20097;-75
2023/07/25 06:11:49;;;;;;;8.07;1.67;;;14.70;99.90;;;;;;5032825;28;20029;-75
2023/07/25 06:14:15;;;;;;;6.30;1.40;;;14.70;99.90;;;;;;5036429;28;20025;-76
2023/07/25 06:16:41;;;;;;;5.85;1.60;;;14.80;99.90;;;;;;5016696;28;20021;-76
2023/07/25 06:19:07;;;;;;;6.97;1.42;;;14.80;99.90;;;;;;5016634;28;20022;-76
2023/07/25 06:21:33;;;;;;;4.30;1.48;;;14.80;99.90;;;;;;5016009;28;20436;-77
2023/07/25 06:23:59;;;;;;;7.60;1.77;;;14.90;99.90;;;;;;5031553;28;20045;-76
2023/07/25 06:26:24;;;;;;;4.95;1.50;;;14.90;99.90;;;;;;5033832;28;20386;-76
2023/07/25 06:28:52;;;;;;;6.35;1.42;;;14.90;99.90;;;;;;5031926;28;20061;-76
2023/07/25 06:31:18;;;;;;;5.13;1.40;;;15.00;99.90;;;;;;5032375;28;20044;-76
2023/07/25 06:33:43;;;;;;;5.07;1.48;;;15.00;99.90;;;;;;5032531;28;20400;-80
2023/07/25 06:36:09;;;;;;;6.40;1.90;;;15.10;99.90;;;;;;5032820;28;20043;-80
2023/07/25 06:38:35;;;;;;;9.02;1.52;;;15.10;99.90;;;;;;5032653;28;20064;-81
2023/07/25 06:41:00;;;;;;;8.57;1.63;;;15.10;99.90;;;;;;5033515;28;20029;-80
2023/07/25 06:43:26;;;;;;;3.20;1.13;;;15.20;99.90;;;;;;5016161;28;20053;-81
2023/07/25 06:45:52;;;;;;;4.25;1.23;;;15.20;99.80;;;;;;5032658;28;20033;-80
2023/07/25 06:48:18;;;;;;;4.60;1.33;;;15.30;99.70;;;;;;5033675;28;20060;-82
2023/07/25 06:50:44;;;;;;;4.55;1.50;;;15.30;99.70;;;;;;5032286;28;20029;-82
2023/07/25 06:53:10;;;;;;;6.30;1.52;;;15.40;99.60;;;;;;5032874;28;20034;-81
2023/07/25 06:55:37;;;;;;;6.35;1.20;;;15.40;99.60;;;;;;5051336;28;20440;-82
2023/07/25 06:58:03;;;;;;;3.85;1.35;;;15.50;99.60;;;;;;5053482;28;20025;-81
2023/07/25 07:00:29;;;;;;;7.75;1.52;;;15.50;99.50;;;;;;5052901;28;20360;-82
2023/07/25 07:02:55;;;;;;;6.90;1.67;;;15.60;99.40;;;;;;5035844;28;20036;-82
2023/07/25 07:05:20;;;;;;;5.63;1.40;;;15.60;99.30;;;;;;5035668;28;20492;-82
2023/07/25 07:07:46;;;;;;;8.40;1.13;;;15.70;99.20;;;;;;5035722;28;20103;-82
2023/07/25 07:10:12;;;;;;;10.80;1.42;;;15.80;99.20;;;;;;5052271;28;20052;-82
2023/07/25 07:12:45;;;;;;;5.85;0.95;;;15.80;99.10;;;;;;5052065;28;20032;-81
2023/07/25 07:15:14;;;;;;;5.30;1.10;;;15.90;99.00;;;;;;5036718;28;20028;-82
2023/07/25 07:17:41;;;;;;;8.32;1.10;;;15.90;98.80;;;;;;5052548;28;20029;-82
2023/07/25 07:20:08;;;;;;;5.70;1.40;;;16.00;98.70;;;;;;5052039;28;20027;-82
2023/07/25 07:22:33;;;;;;;4.78;1.30;;;16.00;98.60;;;;;;5052120;28;20162;-82
2023/07/25 07:24:59;;;;;;;5.47;0.82;;;16.10;98.50;;;;;;5052040;28;20040;-81
2023/07/25 07:27:25;;;;;;;6.82;1.23;;;16.20;98.40;;;;;;5035334;28;20065;-82
2023/07/25 07:29:52;;;;;;;3.53;1.00;;;16.20;98.20;;;;;;5052031;28;20078;-82
2023/07/25 07:32:18;;;;;;;4.97;0.80;;;16.30;98.00;;;;;;5053128;28;20416;-82
2023/07/25 07:34:44;;;;;;;8.18;0.93;;;16.40;97.80;;;;;;5053247;28;20029;-82
2023/07/25 07:37:09;;;;;;;3.72;0.80;;;16.50;97.60;;;;;;5019026;28;20477;-81
2023/07/25 07:39:37;;;;;;;1.98;0.50;;;16.60;97.30;;;;;;5052308;28;20029;-82
2023/07/25 07:42:03;;;;;;;3.53;0.82;;;16.60;97.10;;;;;;5051970;28;20063;-82
2023/07/25 07:44:29;;;;;;;5.10;1.17;;;16.60;96.80;;;;;;5051890;28;20473;-81
2023/07/25 07:46:55;;;;;;;3.00;0.70;;;16.70;96.60;;;;;;5051977;28;20033;-82
2023/07/25 07:49:21;;;;;;;4.63;0.88;;;16.80;96.40;;;;;;5052000;28;20362;-82
2023/07/25 07:51:46;;;;;;;2.67;0.80;;;16.90;96.10;;;;;;5051872;28;20036;-82
2023/07/25 07:54:12;;;;;;;4.57;0.90;;;16.90;95.90;;;;;;5035311;28;20127;-83
2023/07/25 07:56:37;;;;;;;4.13;0.70;;;17.00;95.70;;;;;;5035320;28;20476;-82
2023/07/25 07:59:03;;;;;;;3.70;0.70;;;17.10;95.60;;;;;;5035379;28;20037;-82
2023/07/25 08:01:29;;;;;;;4.70;0.70;;;17.20;95.50;;;;;;5051964;28;20036;-82
2023/07/25 08:03:54;;;;;;;3.33;0.73;;;17.30;95.20;;;;;;5035310;28;20021;-81
2023/07/25 08:06:20;;;;;;;3.80;0.75;;;17.40;95.00;;;;;;5053014;28;20096;-82
2023/07/25 08:08:47;;;;;;;9.75;0.93;;;17.50;94.90;;;;;;5052970;28;20036;-82
2023/07/25 08:11:12;;;;;;;4.28;0.60;;;17.60;94.40;;;;;;5053497;28;20408;-82
2023/07/25 08:13:38;;;;;;;4.78;0.68;;;17.60;94.10;;;;;;5055381;28;20033;-82
2023/07/25 08:16:05;;;;;;;6.50;0.73;;;17.70;93.80;;;;;;5055463;28;20037;-82
2023/07/25 08:18:30;;;;;;;2.75;0.60;;;17.80;93.50;;;;;;5039004;28;20021;-83
2023/07/25 08:20:57;;;;;;;3.17;0.60;;;17.80;93.50;;;;;;5055459;28;20036;-81
2023/07/25 08:23:25;;;;;;;2.00;0.40;;;18.00;93.10;;;;;;5038474;28;20057;-82
2023/07/25 08:25:51;;;;;;;3.03;0.70;;;18.00;92.80;;;;;;5055298;28;20389;-82
2023/07/25 08:28:16;;;;;;;3.08;0.45;;;18.10;92.40;;;;;;5056475;28;20509;-82
2023/07/25 08:30:43;;;;;;;3.83;0.70;;;18.20;92.10;;;;;;5056586;28;20052;-82
2023/07/25 08:33:08;;;;;;;2.50;0.60;;;18.20;91.70;;;;;;5056159;28;20452;-82
2023/07/25 08:35:34;;;;;;;5.18;0.88;;;18.30;91.40;;;;;;5056151;28;20503;-81
2023/07/25 08:38:00;;;;;;;4.22;0.60;;;18.40;91.10;;;;;;5054892;28;20035;-82
2023/07/25 08:40:25;;;;;;;2.53;0.55;;;18.40;90.70;;;;;;5038525;28;20021;-82
2023/07/25 08:42:54;;;;;;;3.00;0.50;;;18.50;90.40;;;;;;5054914;28;20115;-82
2023/07/25 08:45:22;;;;;;;3.50;0.52;;;18.50;90.10;;;;;;5039047;28;20121;-82
2023/07/25 08:47:51;;;;;;;4.18;0.40;;;18.50;89.70;;;;;;5054532;28;20040;-81
2023/07/25 08:50:19;;;;;;;3.70;0.60;;;18.50;89.40;;;;;;5054557;28;20063;-82
2023/07/25 08:52:51;;;;;;;4.13;0.55;;;18.60;89.20;;;;;;5055740;28;20024;-81
2023/07/25 08:55:17;;;;;;;5.00;0.50;;;18.60;88.70;;;;;;5054363;28;20096;-80
2023/07/25 08:57:44;;;;;;;2.38;0.40;;;18.60;88.00;;;;;;5055615;28;20119;-81
2023/07/25 09:00:12;;;;;;;3.30;0.40;;;18.60;87.10;;;;;;5054795;28;20021;-81
2023/07/25 09:02:38;;;;;;;1.55;0.30;;;18.70;86.40;;;;;;5055431;28;20036;-81
2023/07/25 09:05:05;;;;;;;2.50;0.40;;;18.60;85.50;;;;;;5055559;28;20071;-81
2023/07/25 09:07:31;;;;;;;2.45;0.35;;;18.60;84.90;;;;;;5054188;28;20455;-82
2023/07/25 09:09:57;;;;;;;4.95;0.40;;;18.60;84.40;;;;;;5055553;28;20024;-81
2023/07/25 09:12:23;;;;;;;2.30;0.30;;;18.60;83.90;;;;;;5054129;28;20105;-81
2023/07/25 09:14:49;;;;;;;2.45;0.30;;;18.70;83.50;;;;;;5054478;28;20103;-81
2023/07/25 09:17:14;;;;;;;3.85;0.40;;;18.60;83.00;;;;;;5055533;28;20374;-82
2023/07/25 09:19:41;;;;;;;1.42;0.30;;;18.70;82.60;;;;;;5037569;28;20426;-82
2023/07/25 09:22:32;;;;;;;1.77;0.70;;;18.70;82.20;;;;;;5037304;28;20167;-81
2023/07/25 09:24:58;;;;;;;2.60;0.40;;;18.70;81.70;;;;;;5053966;28;20056;-81
2023/07/25 09:27:25;;;;;;;2.40;0.40;;;18.70;81.50;;;;;;5037399;28;20033;-81
2023/07/25 09:29:52;;;;;;;1.90;0.30;;;18.80;81.00;;;;;;5055009;28;20025;-81
2023/07/25 09:32:27;;;;;;;0.63;0.20;;;18.80;81.20;;;;;;5054852;28;20473;-81
2023/07/25 09:34:58;;;;;;;0.90;0.15;;;18.90;80.20;;;;;;5054952;28;20044;-82
2023/07/25 09:37:24;;;;;;;0.98;0.20;;;19.00;80.10;;;;;;5055302;28;20074;-81
2023/07/25 09:39:50;;;;;;;1.35;0.40;;;19.10;79.80;;;;;;5054972;28;20033;-81
2023/07/25 09:42:19;;;;;;;2.60;0.45;;;19.30;79.50;;;;;;5054983;28;20039;-81
2023/07/25 09:44:50;;;;;;;1.25;0.20;;;19.40;79.10;;;;;;5037893;28;20025;-80
2023/07/25 09:47:21;;;;;;;2.35;0.35;;;19.40;78.40;;;;;;5053541;28;20021;-81
2023/07/25 09:49:48;;;;;;;2.95;0.30;;;19.50;77.90;;;;;;5053643;28;20020;-80
2023/07/25 09:52:15;;;;;;;2.75;0.20;;;19.50;77.20;;;;;;5054941;28;20473;-81
2023/07/25 09:54:41;;;;;;;1.55;0.20;;;19.50;76.50;;;;;;5054841;28;20029;-81
2023/07/25 09:57:07;;;;;;;3.63;0.30;;;19.50;76.10;;;;;;5053497;28;20029;-82
2023/07/25 09:59:34;;;;;;;1.10;0.20;;;19.50;75.60;;;;;;5053592;28;20393;-82
2023/07/25 10:02:00;;;;;;;1.30;0.30;;;19.60;75.20;;;;;;5053489;28;20021;-82
2023/07/25 10:04:27;;;;;;;0.73;0.20;;;19.70;74.80;;;;;;5053428;28;20037;-81
2023/07/25 10:06:53;;;;;;;1.50;0.20;;;19.70;74.20;;;;;;5053176;28;20033;-81
2023/07/25 10:09:19;;;;;;;1.42;0.28;;;19.80;73.70;;;;;;5036494;28;20036;-81
2023/07/25 10:11:46;;;;;;;0.73;0.20;;;19.80;73.40;;;;;;5054229;28;20021;-81
2023/07/25 10:14:13;;;;;;;1.55;0.10;;;19.90;72.90;;;;;;5052991;28;20063;-80
2023/07/25 10:16:40;;;;;;;1.38;0.10;;;20.00;73.10;;;;;;5052933;28;20570;-81
2023/07/25 10:19:06;;;;;;;0.52;0.10;;;20.00;72.10;;;;;;5054446;28;20032;-80
2023/07/25 10:21:49;;;;;;;2.40;0.20;;;20.00;71.30;;;;;;5052753;28;20017;-80
2023/07/25 10:24:16;;;;;;;1.33;0.20;;;20.00;70.50;;;;;;5052737;28;20045;-80
2023/07/25 10:27:00;;;;;;;0.60;0.20;;;19.90;70.40;;;;;;5054236;28;20355;-80
2023/07/25 10:29:39;;;;;;;1.27;0.10;;;20.00;70.10;;;;;;5053006;28;20029;-82
2023/07/25 10:32:06;;;;;;;0.98;0.15;;;20.00;69.80;;;;;;5053036;28;20079;-81
2023/07/25 10:34:48;;;;;;;1.02;0.30;;;20.00;69.60;;;;;;5036094;28;20032;-81
2023/07/25 10:37:30;;;;;;;1.50;0.30;;;20.00;69.20;;;;;;5054288;28;20024;-80
2023/07/25 10:40:03;;;;;;;5.20;0.30;;;20.10;69.10;;;;;;5054735;28;20017;-80
2023/07/25 10:42:58;;;;;;;1.70;0.30;;;20.20;68.90;;;;;;5054283;28;20036;-79
2023/07/25 10:45:33;;;;;;;1.17;0.20;;;20.40;68.00;;;;;;5052330;28;20044;-80
2023/07/25 10:48:02;;;;;;;1.33;0.20;;;20.50;68.00;;;;;;5053720;28;20021;-82
2023/07/25 10:50:51;;;;;;;0.77;0.20;;;20.60;67.70;;;;;;5053502;28;20039;-80
2023/07/25 10:53:22;;;;;;;0.93;0.10;;;20.60;67.10;;;;;;5052039;28;20048;-81
2023/07/25 10:56:09;;;;;;;1.67;0.40;;;20.70;67.10;;;;;;5052170;28;20028;-80
2023/07/25 10:58:58;;;;;;;1.50;0.13;;;20.80;66.30;;;;;;5052137;28;20017;-81
2023/07/25 11:01:34;;;;;;;3.03;0.20;;;21.00;66.50;;;;;;5051895;28;20021;-80
2023/07/25 11:04:23;;;;;;;0.75;0.20;;;21.20;66.20;;;;;;5052062;28;20025;-80
2023/07/25 11:06:57;;;;;;;2.47;0.10;;;21.30;65.30;;;;;;5052079;28;20060;-80
2023/07/25 11:09:24;;;;;;;0.98;0.20;;;21.50;65.20;;;;;;5053141;28;20088;-80
2023/07/25 11:11:51;;;;;;;2.22;0.40;;;21.60;64.80;;;;;;5051799;28;20028;-81
2023/07/25 11:14:18;;;;;;;2.10;0.20;;;21.70;64.40;;;;;;5052037;28;20037;-81
2023/07/25 11:16:48;;;;;;;0.80;0.15;;;21.80;64.20;;;;;;5053381;28;20103;-80
2023/07/25 11:19:14;;;;;;;1.08;0.10;;;22.00;63.90;;;;;;5051957;28;20469;-81
2023/07/25 11:21:45;;;;;;;0.45;0.10;;;22.10;63.30;;;;;;5035413;28;20358;-80
2023/07/25 11:24:11;;;;;;;1.17;0.20;;;22.20;62.30;;;;;;5051781;28;20049;-80
2023/07/25 11:26:38;;;;;;;2.85;0.20;;;22.30;61.80;;;;;;5051918;28;20018;-81
2023/07/25 11:29:09;;;;;;;0.90;0.20;;;22.40;61.40;;;;;;5051805;28;20028;-78
2023/07/25 11:31:42;;;;;;;0.88;0.10;;;22.40;61.00;;;;;;5051686;28;20465;-79
2023/07/25 11:34:12;;;;;;;2.63;0.17;;;22.40;60.90;;;;;;5053109;28;20029;-81
2023/07/25 11:36:39;;;;;;;0.95;0.20;;;22.60;60.80;;;;;;5052093;28;20021;-80
2023/07/25 11:39:06;;;;;;;0.57;0.10;;;22.70;60.60;;;;;;5053292;28;20039;-81
2023/07/25 11:41:33;;;;;;;1.23;0.15;;;22.80;60.90;;;;;;5053164;28;20017;-80
2023/07/25 11:43:59;;;;;;;1.40;0.10;;;22.90;59.70;;;;;;5053161;28;20068;-81
2023/07/25 11:46:26;;;;;;;1.35;0.10;;;23.00;59.30;;;;;;5037104;28;20472;-81
2023/07/25 11:48:53;;;;;;;2.70;0.20;;;23.10;59.00;;;;;;5056983;28;20075;-82
2023/07/25 11:51:19;;;;;;;0.47;0.10;;;23.20;59.50;;;;;;5039104;28;20382;-81
2023/07/25 11:53:45;;;;;;;1.25;0.17;;;23.40;58.60;;;;;;5056736;28;20029;-82
2023/07/25 11:56:11;;;;;;;0.75;0.10;;;23.70;58.00;;;;;;5056918;28;20130;-81
2023/07/25 11:58:37;;;;;;;0.95;0.20;;;23.90;57.40;;;;;;5055877;28;20123;-82
2023/07/25 12:01:08;;;;;;;0.73;0.10;;;24.20;56.90;;;;;;5056677;28;20040;-80
2023/07/25 12:03:33;;;;;;;0.77;0.10;;;24.50;56.40;;;;;;5038831;28;20392;-80
2023/07/25 12:06:01;;;;;;;0.63;0.10;;;24.70;56.30;;;;;;5038716;28;20120;-81
2023/07/25 12:08:40;;;;;;;0.98;0.10;;;24.90;55.90;;;;;;5056587;28;20037;-81
2023/07/25 12:11:09;;;;;;;1.35;0.20;;;25.20;55.30;;;;;;5055291;28;20040;-81
2023/07/25 12:13:46;;;;;;;4.75;0.20;;;25.30;55.00;;;;;;5055072;28;20129;-80
2023/07/25 12:16:31;;;;;;;1.02;0.10;;;25.40;54.10;;;;;;5055036;28;20120;-82
2023/07/25 12:19:08;;;;;;;1.35;0.20;;;25.50;53.70;;;;;;5056194;28;20020;-80
2023/07/25 12:21:36;;;;;;;1.60;0.20;;;25.70;53.40;;;;;;5054821;28;20023;-80
2023/07/25 12:24:05;;;;;;;1.85;0.15;;;25.80;53.40;;;;;;5055925;28;20122;-81
2023/07/25 12:26:54;;;;;;;1.23;0.13;;;25.90;53.30;;;;;;5056130;28;20029;-81
2023/07/25 12:29:24;;;;;;;0.82;0.20;;;26.10;52.70;;;;;;5055473;28;20025;-81
2023/07/25 12:31:51;;;;;;;2.53;0.20;;;26.30;53.00;;;;;;5056127;28;20028;-80
2023/07/25 12:34:20;;;;;;;1.17;0.10;;;26.40;52.60;;;;;;5038172;28;20110;-81
2023/07/25 12:36:50;;;;;;;0.40;0.20;;;26.40;52.20;;;;;;5054807;28;20473;-80
2023/07/25 12:39:16;;;;;;;0.65;0.13;;;26.60;52.20;;;;;;5055978;28;20079;-81
2023/07/25 12:41:43;;;;;;;0.70;0.10;;;26.70;52.20;;;;;;5054720;28;20032;-80
2023/07/25 12:44:09;;;;;;;5.53;0.40;;;26.90;52.80;;;;;;5054616;28;20035;-81
2023/07/25 12:46:38;;;;;;;1.75;0.20;;;27.00;52.10;;;;;;5055763;28;20463;-82